Time;durP1;ratioP1;P1;durP2;ratioP2;P2;SDS_P1;SDS_P2;PMS_P1;PMS_P2;Temp;Humidity;BMP_temperature;BMP_pressure;BME280_temperature;BME280_humidity;BME280_pressure;Samples;Min_cycle;Max_cycle;Signal;HPM_P1;HPM_P2
2022/05/26 00:00:28;;;;;;;35.88;5.13;;;;;;;14.40;100.00;101634.28;5090770;28;20106;-70
2022/05/26 00:02:54;;;;;;;51.63;7.38;;;;;;;14.45;100.00;101634.34;5092909;28;20028;-71
2022/05/26 00:05:19;;;;;;;34.55;5.82;;;;;;;14.48;100.00;101632.59;5101638;28;20031;-71
2022/05/26 00:07:44;;;;;;;40.30;6.13;;;;;;;14.59;100.00;101634.53;5082531;28;20519;-70
2022/05/26 00:10:11;;;;;;;37.03;6.43;;;;;;;14.50;100.00;101635.28;5092108;28;20051;-70
2022/05/26 00:12:37;;;;;;;33.13;5.78;;;;;;;14.48;100.00;101632.59;5094466;28;20032;-71
2022/05/26 00:15:03;;;;;;;34.38;7.45;;;;;;;14.53;100.00;101645.03;5098700;28;20024;-71
2022/05/26 00:17:28;;;;;;;33.53;6.57;;;;;;;14.49;100.00;101644.13;5102664;28;20028;-71
2022/05/26 00:19:54;;;;;;;35.45;7.07;;;;;;;14.51;100.00;101631.75;5100747;28;20030;-71
2022/05/26 00:22:20;;;;;;;38.13;6.50;;;;;;;14.48;100.00;101632.59;5096038;28;20046;-70
2022/05/26 00:24:45;;;;;;;34.35;6.80;;;;;;;14.51;100.00;101637.06;5098818;28;20024;-71
2022/05/26 00:27:11;;;;;;;36.53;5.97;;;;;;;14.50;100.00;101630.88;5097507;28;20038;-71
2022/05/26 00:29:36;;;;;;;31.65;6.53;;;;;;;14.44;100.00;101640.50;5094741;28;20023;-71
2022/05/26 00:32:02;;;;;;;42.63;7.47;;;;;;;14.45;100.00;101645.81;5089258;28;20123;-71
2022/05/26 00:34:27;;;;;;;33.53;6.43;;;;;;;14.47;100.00;101646.75;5103064;28;20055;-71
2022/05/26 00:36:53;;;;;;;37.60;5.80;;;;;;;14.47;100.00;101641.44;5097985;28;20035;-71
2022/05/26 00:39:24;;;;;;;38.30;6.32;;;;;;;14.52;100.00;101637.97;5093252;28;20383;-71
2022/05/26 00:41:53;;;;;;;48.00;6.28;;;;;;;14.47;100.00;101644.09;5098185;28;20036;-71
2022/05/26 00:44:19;;;;;;;30.63;5.97;;;;;;;14.49;100.00;101646.75;5095367;28;20103;-70
2022/05/26 00:46:56;;;;;;;38.75;6.63;;;;;;;14.51;100.00;101655.59;5084148;28;20116;-71
2022/05/26 00:49:24;;;;;;;38.08;6.35;;;;;;;14.56;100.00;101655.69;5093781;28;20031;-71
2022/05/26 00:51:49;;;;;;;37.03;7.60;;;;;;;14.54;100.00;101652.09;5097930;28;20066;-71
2022/05/26 00:54:22;;;;;;;35.22;6.60;;;;;;;14.53;100.00;101647.66;5092552;28;20051;-71
2022/05/26 00:56:51;;;;;;;35.22;5.43;;;;;;;14.54;100.00;101647.72;5104808;28;20061;-72
2022/05/26 00:59:55;;;;;;;31.17;5.60;;;;;;;14.52;100.00;101662.69;5092125;28;20069;-71
2022/05/26 01:02:26;;;;;;;29.52;6.13;;;;;;;14.54;100.00;101658.31;5057033;28;20036;-71
2022/05/26 01:04:58;;;;;;;32.83;5.60;;;;;;;14.59;100.00;101667.19;5106352;28;20023;-71
2022/05/26 01:07:29;;;;;;;37.60;6.30;;;;;;;14.56;100.00;101660.97;5094591;28;20024;-71
2022/05/26 01:09:56;;;;;;;35.78;5.75;;;;;;;14.58;100.00;101664.53;5092766;28;20028;-71
2022/05/26 01:12:21;;;;;;;34.88;5.85;;;;;;;14.54;100.00;101668.00;5089317;28;20053;-71
2022/05/26 01:14:50;;;;;;;31.48;5.88;;;;;;;14.56;100.00;101663.63;5098977;28;20048;-71
2022/05/26 01:17:34;;;;;;;34.88;6.25;;;;;;;14.58;100.00;101667.16;5093115;28;20027;-71
2022/05/26 01:20:23;;;;;;;27.42;5.05;;;;;;;14.49;100.00;101671.47;5092025;28;20054;-71
2022/05/26 01:23:11;;;;;;;31.75;6.53;;;;;;;14.51;100.00;101674.13;5088050;28;20028;-71
2022/05/26 01:25:48;;;;;;;28.77;6.10;;;;;;;14.47;100.00;101670.56;5096242;28;20020;-71
2022/05/26 01:28:48;;;;;;;30.83;6.30;;;;;;;14.46;100.00;101676.72;5091932;28;20032;-71
2022/05/26 01:31:32;;;;;;;28.38;6.05;;;;;;;14.53;100.00;101679.44;5082067;28;20063;-71
2022/05/26 01:34:16;;;;;;;31.08;6.20;;;;;;;14.51;100.00;101684.72;5093052;28;20040;-71
2022/05/26 01:36:56;;;;;;;27.60;5.82;;;;;;;14.53;100.00;101677.72;5101622;28;20048;-71
2022/05/26 01:39:32;;;;;;;20.20;6.13;;;;;;;14.55;100.00;101683.03;5089724;28;20081;-71
2022/05/26 01:42:31;;;;;;;23.63;5.18;;;;;;;14.57;100.00;101689.22;5098720;28;20028;-71
2022/05/26 01:45:09;;;;;;;19.75;4.30;;;;;;;14.56;100.00;101692.75;5101308;28;20115;-71
2022/05/26 01:47:41;;;;;;;23.02;5.10;;;;;;;14.61;100.00;101685.75;5095469;28;20049;-71
2022/05/26 01:50:35;;;;;;;24.38;3.58;;;;;;;14.61;100.00;101685.75;5092136;28;20089;-71
2022/05/26 01:53:37;;;;;;;13.60;2.70;;;;;;;14.61;100.00;101688.38;5082858;28;20032;-70
2022/05/26 01:56:16;;;;;;;13.00;3.05;;;;;;;14.57;100.00;101687.47;5091981;28;20036;-70
2022/05/26 01:58:47;;;;;;;10.00;2.10;;;;;;;14.55;100.00;101690.97;5082285;28;20563;-71
2022/05/26 02:01:26;;;;;;;15.43;2.72;;;;;;;14.52;100.00;101680.34;5093915;28;20244;-70
2022/05/26 02:03:53;;;;;;;13.20;2.40;;;;;;;14.53;100.00;101698.00;5106726;28;20039;-70
2022/05/26 02:06:36;;;;;;;7.32;1.63;;;;;;;14.52;100.00;101696.22;5098411;28;20028;-71
2022/05/26 02:09:04;;;;;;;11.65;2.50;;;;;;;14.49;100.00;101708.53;5093593;28;20062;-71
2022/05/26 02:11:30;;;;;;;14.18;2.33;;;;;;;14.54;100.00;101702.44;5094905;28;20077;-70
2022/05/26 02:14:05;;;;;;;11.15;2.30;;;;;;;14.54;100.00;101707.72;5097752;27;20027;-71
2022/05/26 02:16:37;;;;;;;9.13;2.58;;;;;;;14.58;100.00;101707.81;5105461;28;20563;-71
2022/05/26 02:19:13;;;;;;;11.55;2.13;;;;;;;14.60;100.00;101708.69;5096445;28;20081;-71
2022/05/26 02:21:46;;;;;;;18.38;2.92;;;;;;;14.58;100.00;101710.44;5092566;28;20064;-71
2022/05/26 02:24:29;;;;;;;12.80;2.83;;;;;;;14.58;100.00;101712.19;5102690;28;20018;-71
2022/05/26 02:26:54;;;;;;;9.75;2.00;;;;;;;14.55;100.00;101720.09;5097294;28;20032;-71
2022/05/26 02:32:05;;;;;;;11.07;2.60;;;;;;;14.49;100.00;101716.50;5091535;28;20093;-70
2022/05/26 02:34:32;;;;;;;7.57;1.90;;;;;;;14.47;100.00;101726.19;5099752;28;20039;-70
2022/05/26 02:36:59;;;;;;;10.35;1.90;;;;;;;14.48;100.00;101732.38;5104429;28;20043;-71
2022/05/26 02:39:25;;;;;;;12.57;2.50;;;;;;;14.45;100.00;101733.22;5101210;28;20114;-70
2022/05/26 02:41:56;;;;;;;10.98;2.33;;;;;;;14.37;100.00;101734.84;5110558;28;20474;-70
2022/05/26 02:44:23;;;;;;;7.90;2.03;;;;;;;14.34;100.00;101743.63;5115092;28;20031;-71
2022/05/26 02:46:53;;;;;;;10.82;2.20;;;;;;;14.31;100.00;101742.69;5099982;28;20048;-71
2022/05/26 02:49:36;;;;;;;10.93;2.38;;;;;;;14.34;100.00;101740.09;5107108;28;20530;-71
2022/05/26 02:52:02;;;;;;;11.83;1.93;;;;;;;14.26;100.00;101752.34;5099227;28;20396;-71
2022/05/26 02:54:36;;;;;;;10.27;2.30;;;;;;;14.26;100.00;101749.69;5094376;28;20074;-71
2022/05/26 02:57:27;;;;;;;8.38;2.50;;;;;;;14.28;100.00;101750.59;5102013;28;20035;-72
2022/05/26 03:00:05;;;;;;;18.23;2.53;;;;;;;14.26;100.00;101752.34;5099620;28;20030;-72
2022/05/26 03:02:40;;;;;;;12.10;2.90;;;;;;;14.26;100.00;101753.22;5092255;28;20496;-70
2022/05/26 03:05:08;;;;;;;18.88;3.88;;;;;;;14.20;100.00;101752.22;5110326;28;20032;-69
2022/05/26 03:07:38;;;;;;;12.57;3.97;;;;;;;14.23;100.00;101749.63;5098602;28;20107;-70
2022/05/26 03:10:06;;;;;;;17.27;3.58;;;;;;;14.18;100.00;101756.63;5095886;28;20032;-70
2022/05/26 03:12:34;;;;;;;13.45;3.33;;;;;;;14.14;100.00;101755.66;5091035;28;20100;-72
2022/05/26 03:15:00;;;;;;;15.20;3.03;;;;;;;14.09;100.00;101760.00;5094726;28;20471;-70
2022/05/26 03:17:26;;;;;;;15.52;3.00;;;;;;;14.04;100.00;101762.56;5094415;28;20034;-70
2022/05/26 03:19:51;;;;;;;15.00;3.08;;;;;;;14.06;100.00;101766.13;5101973;28;20031;-71
2022/05/26 03:22:17;;;;;;;12.50;2.67;;;;;;;14.05;100.00;101764.31;5096173;28;20012;-71
2022/05/26 03:24:42;;;;;;;17.30;2.95;;;;;;;14.03;100.00;101767.84;5093399;28;20131;-71
2022/05/26 03:27:08;;;;;;;13.38;2.83;;;;;;;14.06;100.00;101766.13;5094073;28;20032;-70
2022/05/26 03:29:34;;;;;;;13.25;2.80;;;;;;;13.97;100.00;101766.88;5096821;28;20059;-70
2022/05/26 03:31:59;;;;;;;12.82;2.85;;;;;;;13.95;100.00;101773.00;5093461;28;20067;-70
2022/05/26 03:42:38;;;;;;;12.60;2.67;;;;;;;13.89;100.00;101772.88;5108636;28;20031;-71
2022/05/26 03:45:05;;;;;;;13.75;2.50;;;;;;;13.88;100.00;101776.41;5093946;28;20024;-71
2022/05/26 03:47:31;;;;;;;18.35;3.63;;;;;;;13.80;100.00;101773.63;5106263;28;20069;-71
2022/05/26 03:49:57;;;;;;;9.75;2.47;;;;;;;13.78;100.00;101770.03;5099716;28;20024;-71
2022/05/26 03:52:22;;;;;;;16.52;2.85;;;;;;;13.82;100.00;101772.78;5092165;28;20060;-71
2022/05/26 03:54:48;;;;;;;10.60;2.70;;;;;;;13.80;100.00;101774.50;5094027;28;20028;-71
2022/05/26 03:57:13;;;;;;;13.02;2.65;;;;;;;13.79;100.00;101787.69;5096923;28;20042;-71
2022/05/26 03:59:41;;;;;;;14.98;2.67;;;;;;;13.78;100.00;101793.84;5097783;28;20039;-71
2022/05/26 04:02:07;;;;;;;14.15;2.70;;;;;;;13.73;100.00;101793.75;5079266;28;20059;-71
2022/05/26 04:04:32;;;;;;;12.02;3.00;;;;;;;13.74;100.00;101790.25;5090285;28;20047;-71
2022/05/26 04:06:57;;;;;;;18.58;3.17;;;;;;;13.75;100.00;101797.31;5092626;28;20089;-71
2022/05/26 04:09:23;;;;;;;11.18;3.05;;;;;;;13.77;100.00;101795.59;5082542;28;20012;-70
2022/05/26 04:11:48;;;;;;;13.73;2.78;;;;;;;13.78;100.00;101802.69;5093805;28;20107;-71
2022/05/26 04:14:13;;;;;;;10.07;2.53;;;;;;;13.77;100.00;101803.53;5083036;28;20475;-71
2022/05/26 04:16:39;;;;;;;11.25;2.63;;;;;;;13.80;100.00;101814.16;5080169;28;20028;-70
2022/05/26 04:19:05;;;;;;;13.55;2.50;;;;;;;13.82;100.00;101811.53;5093936;28;20424;-70
2022/05/26 04:21:30;;;;;;;9.27;2.90;;;;;;;13.84;100.00;101820.41;5090032;28;20027;-71
2022/05/26 04:23:55;;;;;;;15.38;3.22;;;;;;;13.90;100.00;101822.28;5098420;28;20042;-71
2022/05/26 04:26:21;;;;;;;14.88;3.60;;;;;;;13.85;100.00;101824.84;5093428;28;20016;-71
2022/05/26 04:28:46;;;;;;;12.50;2.25;;;;;;;13.88;100.00;101832.84;5091608;28;20031;-71
2022/05/26 04:31:11;;;;;;;13.95;3.00;;;;;;;13.85;100.00;101830.16;5096831;28;20467;-71
2022/05/26 04:33:37;;;;;;;13.27;3.25;;;;;;;13.89;100.00;101832.00;5097714;28;20073;-72
2022/05/26 04:36:04;;;;;;;15.77;2.65;;;;;;;13.92;100.00;101839.09;5109362;28;20031;-71
2022/05/26 04:38:30;;;;;;;9.88;2.60;;;;;;;13.90;100.00;101833.75;5080424;28;20329;-70
2022/05/26 04:41:04;;;;;;;15.48;3.58;;;;;;;13.88;100.00;101840.78;5089059;28;20073;-70
2022/05/26 04:43:31;;;;;;;14.77;4.15;;;;;;;13.90;100.00;101848.75;5091714;28;20115;-71
2022/05/26 04:45:57;;;;;;;15.43;3.25;;;;;;;13.92;100.00;101842.63;5090332;28;20171;-70
2022/05/26 04:48:22;;;;;;;17.05;3.00;;;;;;;13.95;100.00;101841.78;5081426;28;20439;-72
2022/05/26 04:50:51;;;;;;;14.35;2.55;;;;;;;13.89;100.00;101841.66;5087965;28;20056;-70
2022/05/26 04:53:18;;;;;;;14.98;3.53;;;;;;;13.88;100.00;101851.38;5092991;28;20049;-70
2022/05/26 04:55:43;;;;;;;14.40;2.42;;;;;;;13.86;100.00;101853.06;5092260;28;20482;-71
2022/05/26 04:58:09;;;;;;;14.52;2.95;;;;;;;13.85;100.00;101846.03;5090736;28;20020;-71
2022/05/26 05:00:35;;;;;;;13.07;2.30;;;;;;;13.83;100.00;101858.31;5092280;28;20477;-71
2022/05/26 05:03:00;;;;;;;12.77;2.95;;;;;;;13.82;100.00;101854.78;5088397;28;20108;-68
2022/05/26 05:05:26;;;;;;;17.92;3.05;;;;;;;13.87;100.00;101859.28;5091500;28;20439;-70
2022/05/26 05:07:51;;;;;;;11.10;2.45;;;;;;;13.89;100.00;101857.53;5094272;28;20375;-70
2022/05/26 05:10:16;;;;;;;12.15;2.83;;;;;;;13.93;100.00;101864.66;5090171;28;20067;-71
2022/05/26 05:12:42;;;;;;;15.60;3.03;;;;;;;13.97;100.00;101864.78;5088224;28;20031;-71
2022/05/26 05:15:15;;;;;;;11.60;2.70;;;;;;;13.99;100.00;101868.31;5085410;28;20034;-71
2022/05/26 05:17:41;;;;;;;14.68;3.22;;;;;;;14.03;100.00;101877.22;5077525;28;20538;-70
2022/05/26 05:20:07;;;;;;;15.00;2.63;;;;;;;14.05;100.00;101875.47;5080007;28;20052;-71
2022/05/26 05:22:40;;;;;;;14.23;3.25;;;;;;;14.10;100.00;101879.13;5083554;28;20020;-70
2022/05/26 05:25:11;;;;;;;12.77;2.85;;;;;;;14.11;100.00;101880.91;5091084;28;20049;-71
2022/05/26 05:27:47;;;;;;;7.32;2.20;;;;;;;14.13;100.00;101884.50;5087855;28;20128;-71
2022/05/26 05:30:17;;;;;;;14.63;3.20;;;;;;;14.23;100.00;101881.97;5085508;28;20020;-70
2022/05/26 05:32:47;;;;;;;15.82;2.63;;;;;;;14.20;100.00;101889.88;5085343;28;20036;-71
2022/05/26 05:35:18;;;;;;;12.45;2.45;;;;;;;14.22;100.00;101881.09;5094817;28;20019;-71
2022/05/26 05:37:44;;;;;;;12.02;3.33;;;;;;;14.25;100.00;101898.81;5082442;28;20067;-71
2022/05/26 05:40:10;;;;;;;14.63;3.28;;;;;;;14.32;100.00;101891.00;5090061;28;20463;-71
2022/05/26 05:42:36;;;;;;;13.75;2.47;;;;;;;14.39;100.00;101889.38;5081705;28;20024;-70
2022/05/26 05:45:01;;;;;;;21.02;2.65;;;;;;;14.43;100.00;101893.84;5079873;28;20529;-70
2022/05/26 05:47:27;;;;;;;18.50;2.85;;;;;;;14.38;100.00;101886.66;5091576;28;20204;-71
2022/05/26 05:49:52;;;;;;;9.85;2.40;;;;;;;14.37;100.00;101893.72;5094774;28;20103;-71
2022/05/26 05:52:20;;;;;;;10.02;2.50;;;;;;;14.44;100.00;101894.72;5095706;28;20122;-70
2022/05/26 05:54:46;;;;;;;18.65;3.45;;;;;;;14.48;100.00;101900.09;5092051;28;20483;-71
2022/05/26 05:57:11;;;;;;;12.73;2.50;;;;;;;14.47;100.00;101905.38;5093029;28;20034;-71
2022/05/26 05:59:36;;;;;;;11.70;2.42;;;;;;;14.55;100.00;101908.16;5084914;28;20086;-71
2022/05/26 06:02:02;;;;;;;9.38;2.58;;;;;;;14.67;100.00;101913.69;5086479;28;20023;-70
2022/05/26 06:04:27;;;;;;;15.82;3.25;;;;;;;14.70;100.00;101916.38;5092372;28;20036;-71
2022/05/26 06:06:54;;;;;;;10.52;2.60;;;;;;;14.70;100.00;101913.72;5091356;28;20048;-71
2022/05/26 06:09:20;;;;;;;5.90;1.90;;;;;;;14.71;100.00;101914.66;5081647;28;20484;-71
2022/05/26 06:11:47;;;;;;;8.05;1.75;;;;;;;14.70;100.00;101924.34;5092956;28;20106;-70
2022/05/26 06:14:12;;;;;;;8.43;2.47;;;;;;;14.69;100.00;101921.66;5096171;28;20055;-71
2022/05/26 06:16:38;;;;;;;13.43;2.85;;;;;;;14.65;100.00;101926.91;5093501;28;20474;-71
2022/05/26 06:19:04;;;;;;;12.98;3.72;;;;;;;14.71;100.00;101928.78;5095742;28;20077;-71
2022/05/26 06:21:29;;;;;;;9.95;2.25;;;;;;;14.77;100.00;101931.53;5095391;28;20031;-71
2022/05/26 06:23:56;;;;;;;11.93;2.30;;;;;;;14.81;100.00;101927.16;5093879;28;20062;-71
2022/05/26 06:26:26;;;;;;;14.77;2.83;;;;;;;14.84;100.00;101933.41;5089242;28;20025;-71
2022/05/26 06:31:36;;;;;;;13.77;2.42;;;;;;;14.96;100.00;101942.41;5086020;28;20050;-71
2022/05/26 06:39:30;;;;;;;12.90;2.30;;;;;;;14.89;100.00;101951.16;5094000;28;20494;-71
2022/05/26 06:42:07;;;;;;;16.02;2.47;;;;;;;14.89;100.00;101946.72;5084801;28;20023;-72
2022/05/26 06:44:37;;;;;;;11.52;2.20;;;;;;;14.98;100.00;101956.59;5091276;28;20035;-71
2022/05/26 06:47:15;;;;;;;6.70;1.70;;;;;;;15.03;100.00;101957.56;5087059;28;20036;-72
2022/05/26 06:49:41;;;;;;;12.40;2.30;;;;;;;15.05;100.00;101952.28;5087213;28;20051;-71
2022/05/26 06:52:07;;;;;;;10.02;2.33;;;;;;;15.04;100.00;101948.72;5088980;28;20021;-71
2022/05/26 06:54:36;;;;;;;9.10;2.00;;;;;;;15.03;100.00;101954.94;5089897;28;20044;-71
2022/05/26 06:57:03;;;;;;;10.50;2.20;;;;;;;14.99;100.00;101961.03;5083387;28;20136;-71
2022/05/26 06:59:28;;;;;;;10.80;2.55;;;;;;;14.99;100.00;101963.69;5084454;28;20059;-71
2022/05/26 07:01:54;;;;;;;10.77;2.22;;;;;;;15.07;100.00;101962.06;5088172;28;20067;-70
2022/05/26 07:04:19;;;;;;;9.43;2.03;;;;;;;15.06;100.00;101968.22;5082272;28;20032;-70
2022/05/26 07:06:53;;;;;;;8.80;2.00;;;;;;;15.06;100.00;101968.22;5083838;28;20024;-71
2022/05/26 07:09:19;;;;;;;8.57;2.28;;;;;;;15.14;100.00;101978.97;5084395;28;20031;-70
2022/05/26 07:11:45;;;;;;;7.22;1.88;;;;;;;15.22;100.00;101977.31;5086898;28;20410;-70
2022/05/26 07:14:12;;;;;;;12.18;2.25;;;;;;;15.27;100.00;101980.03;5089463;28;20088;-72
2022/05/26 07:16:37;;;;;;;7.80;1.95;;;;;;;15.35;100.00;101973.06;5094605;28;20028;-70
2022/05/26 07:19:02;;;;;;;11.10;2.00;;;;;;;15.35;100.00;101973.06;5093070;28;20119;-70
2022/05/26 07:21:28;;;;;;;8.52;1.88;;;;;;;15.37;100.00;101981.97;5069977;28;20036;-71
2022/05/26 07:23:53;;;;;;;8.65;2.25;;;;;;;15.30;100.00;101974.75;5094853;28;20016;-71
2022/05/26 07:26:21;;;;;;;6.20;1.67;;;;;;;15.31;100.00;101974.81;5094689;28;20513;-70
2022/05/26 07:28:46;;;;;;;10.50;2.80;;;;;;;15.34;100.00;101972.19;5092627;28;20032;-70
2022/05/26 07:31:13;;;;;;;13.40;2.15;;;;;;;15.46;100.00;101971.50;5089219;28;20205;-69
2022/05/26 07:33:38;;;;;;;11.73;2.30;;;;;;;15.59;100.00;101976.97;5086611;28;20028;-69
2022/05/26 07:36:05;;;;;;;11.18;2.17;;;;;;;15.75;100.00;101981.63;5093108;28;20031;-68
2022/05/26 07:41:20;;;;;;;;;;;;;;;15.75;100.00;101989.56;5093743;28;20046;-68
2022/05/26 07:43:59;;;;;;;12.93;2.40;;;;;;;15.65;100.00;101987.66;5082906;28;20364;-70
2022/05/26 07:46:26;;;;;;;11.20;3.10;;;;;;;15.57;100.00;101989.31;5091620;28;20024;-70
2022/05/26 07:48:52;;;;;;;8.60;2.50;;;;;;;15.72;100.00;101993.94;5093218;28;20563;-70
2022/05/26 07:51:21;;;;;;;7.30;2.20;;;;;;;15.85;100.00;102007.41;5090121;28;20115;-70
2022/05/26 07:53:47;;;;;;;9.80;2.00;;;;;;;15.85;100.00;101995.91;5090851;28;20396;-71
2022/05/26 07:56:12;;;;;;;7.22;1.80;;;;;;;15.95;100.00;101999.59;5084524;28;20031;-70
2022/05/26 07:58:38;;;;;;;12.05;2.15;;;;;;;16.00;100.00;102006.72;5094547;28;20471;-71
2022/05/26 08:01:04;;;;;;;8.18;2.10;;;;;;;15.96;100.00;102006.69;5094691;28;20027;-71
2022/05/26 08:03:30;;;;;;;8.23;2.28;;;;;;;15.93;100.00;102004.00;5095586;28;20028;-71
2022/05/26 08:05:56;;;;;;;15.32;3.78;;;;;;;15.87;100.00;102010.13;5094151;28;20077;-72
2022/05/26 08:08:22;;;;;;;12.85;2.28;;;;;;;15.80;100.00;102006.50;5096308;28;20035;-71
2022/05/26 08:10:47;;;;;;;9.45;2.28;;;;;;;15.89;100.00;102012.78;5094459;28;20016;-71
2022/05/26 08:13:13;;;;;;;14.68;2.42;;;;;;;15.92;100.00;102003.09;5094276;28;20039;-72
2022/05/26 08:15:38;;;;;;;8.75;2.08;;;;;;;15.89;100.00;102016.31;5093281;28;20560;-72
2022/05/26 08:18:04;;;;;;;11.52;2.28;;;;;;;15.88;100.00;102011.00;5092889;28;20140;-71
2022/05/26 08:20:29;;;;;;;12.50;2.33;;;;;;;15.75;100.00;102005.50;5093363;28;20114;-70
2022/05/26 08:22:55;;;;;;;16.75;2.33;;;;;;;15.84;100.00;102016.28;5093451;28;20464;-71
2022/05/26 08:25:20;;;;;;;11.57;1.70;;;;;;;16.04;100.00;102005.00;5093306;28;20106;-74
2022/05/26 08:27:45;;;;;;;10.40;2.05;;;;;;;16.22;100.00;102014.06;5094074;28;20020;-71
2022/05/26 08:30:11;;;;;;;9.30;1.80;;;;;;;16.43;100.00;102011.66;5101053;28;20035;-70
2022/05/26 08:32:36;;;;;;;12.38;2.00;;;;;;;16.48;100.00;102015.28;5093830;28;20543;-71
2022/05/26 08:35:07;;;;;;;7.20;1.67;;;;;;;16.62;100.00;102030.47;5101264;28;20035;-70
2022/05/26 08:37:32;;;;;;;8.10;2.13;;;;;;;16.62;100.00;102034.03;5112964;28;20106;-71
2022/05/26 08:39:58;;;;;;;9.32;1.90;;;;;;;16.72;100.00;102036.78;5107029;28;20106;-71
2022/05/26 08:42:29;;;;;;;14.43;2.25;;;;;;;16.61;100.00;102041.97;5093315;28;20375;-71
2022/05/26 08:44:58;;;;;;;8.85;1.88;;;;;;;16.50;100.00;102048.06;5097692;28;20034;-72
2022/05/26 08:47:30;;;;;;;15.50;2.90;;;;;;;16.29;100.00;102050.44;5092864;28;20052;-71
2022/05/26 08:50:06;;;;;;;9.57;2.22;;;;;;;16.45;100.00;102052.41;5091592;28;20023;-72
2022/05/26 08:52:58;;;;;;;12.07;2.13;;;;;;;16.44;100.00;102060.38;5090509;28;20036;-72
2022/05/26 08:55:29;;;;;;;17.92;4.43;;;;;;;16.31;100.00;102054.03;5090597;28;20054;-74
2022/05/26 08:58:09;;;;;;;10.35;2.30;;;;;;;16.28;100.00;102061.97;5094302;28;20028;-71
2022/05/26 09:00:37;;;;;;;11.85;2.50;;;;;;;16.22;100.00;102059.22;5093214;28;20035;-72
2022/05/26 09:03:20;;;;;;;15.50;2.33;;;;;;;16.30;100.00;102062.88;5101012;28;20047;-71
2022/05/26 09:05:51;;;;;;;12.90;2.42;;;;;;;16.30;100.00;102062.88;5092657;28;20422;-72
2022/05/26 09:13:56;;;;;;;10.32;2.30;;;;;;;16.61;100.00;102079.19;5091244;28;20051;-71
2022/05/26 09:16:22;;;;;;;9.77;2.38;;;;;;;16.72;100.00;102066.88;5090453;28;20020;-70
2022/05/26 09:19:15;;;;;;;12.32;2.50;;;;;;;16.84;100.00;102077.66;5102286;28;20031;-71
2022/05/26 09:21:41;;;;;;;11.05;2.75;;;;;;;16.81;100.00;102069.66;5106074;28;20103;-71
2022/05/26 09:24:29;;;;;;;14.73;2.53;;;;;;;16.91;100.00;102078.66;5090503;28;20024;-71
2022/05/26 09:26:57;;;;;;;15.00;2.80;;;;;;;16.75;100.00;102081.97;5090230;28;20053;-70
2022/05/26 09:29:28;;;;;;;8.55;2.30;;;;;;;16.92;100.00;102085.75;5092730;28;20024;-71
2022/05/26 09:31:56;;;;;;;12.25;2.17;;;;;;;16.88;100.00;102085.69;5088338;28;20375;-71
2022/05/26 09:34:24;;;;;;;14.80;3.03;;;;;;;16.72;100.00;102092.59;5086652;28;20035;-70
2022/05/26 09:36:53;;;;;;;17.92;3.33;;;;;;;16.73;100.00;102083.75;5082046;28;20109;-70
2022/05/26 09:39:25;;;;;;;16.98;3.30;;;;;;;16.85;100.00;102091.84;5081912;28;20032;-71
2022/05/26 09:41:54;;;;;;;13.75;2.85;;;;;;;16.97;100.00;102100.00;5085166;28;20027;-72
2022/05/26 09:44:29;;;;;;;12.40;2.33;;;;;;;17.17;100.00;102102.84;5085331;28;20020;-70
2022/05/26 09:46:58;;;;;;;10.77;2.28;;;;;;;17.09;100.00;102098.31;5084813;28;20490;-72
2022/05/26 09:49:31;;;;;;;8.93;1.70;;;;;;;17.26;99.74;102086.06;5081241;28;20664;-71
2022/05/26 09:52:15;;;;;;;14.70;2.85;;;;;;;17.65;98.67;102097.91;5087116;28;20081;-72
2022/05/26 09:54:41;;;;;;;10.23;2.35;;;;;;;17.80;97.85;102107.78;5095088;28;20519;-70
2022/05/26 09:57:17;;;;;;;9.95;2.00;;;;;;;17.89;96.54;102101.59;5085514;28;20130;-71
2022/05/26 09:59:44;;;;;;;9.38;2.58;;;;;;;17.77;97.08;102117.50;5087750;28;20035;-70
2022/05/26 10:02:44;;;;;;;8.52;2.03;;;;;;;17.76;93.94;102119.28;5081558;28;20020;-71
2022/05/26 10:05:14;;;;;;;14.30;2.47;;;;;;;17.65;94.46;102113.00;5073477;28;20186;-70
2022/05/26 10:07:54;;;;;;;9.43;2.00;;;;;;;17.55;95.32;102108.47;5088308;28;20874;-70
2022/05/26 10:10:51;;;;;;;14.52;2.28;;;;;;;17.43;94.53;102120.81;5089838;28;20024;-69
2022/05/26 10:13:52;;;;;;;10.02;2.47;;;;;;;17.36;96.35;102113.63;5087066;28;20028;-70
2022/05/26 10:16:20;;;;;;;7.93;2.40;;;;;;;17.62;96.07;102118.28;5092015;28;20043;-70
2022/05/26 10:18:57;;;;;;;8.25;2.42;;;;;;;17.64;94.71;102108.56;5083782;28;20378;-70
2022/05/26 10:21:40;;;;;;;7.78;2.10;;;;;;;17.60;95.86;102102.31;5093302;28;20052;-71
2022/05/26 10:24:11;;;;;;;9.60;2.08;;;;;;;17.80;95.05;102099.78;5099749;28;20030;-70
2022/05/26 10:26:57;;;;;;;8.98;2.10;;;;;;;18.08;92.01;102104.44;5113616;28;20032;-70
2022/05/26 10:29:22;;;;;;;8.85;2.22;;;;;;;18.19;90.26;102108.94;5093642;28;20103;-67
2022/05/26 10:32:10;;;;;;;16.63;2.80;;;;;;;18.13;92.61;102108.88;5093262;28;20464;-67
2022/05/26 10:35:43;;;;;;;6.75;1.70;;;;;;;17.95;88.59;102107.03;5087371;28;20752;-67
2022/05/26 10:38:37;;;;;;;7.97;1.75;;;;;;;17.81;89.24;102106.91;5060496;28;20476;-67
2022/05/26 10:41:17;;;;;;;;;;;;;;;17.83;90.92;102099.81;5073974;28;20047;-70
2022/05/26 10:44:17;;;;;;;7.43;1.60;;;;;;;18.30;92.20;102110.75;5092591;28;20431;-71
2022/05/26 10:46:51;;;;;;;8.90;2.10;;;;;;;18.24;88.96;102100.94;5092935;28;20442;-72
2022/05/26 10:49:30;;;;;;;;;;;;;;;18.33;87.64;102103.66;5094980;28;20028;-76
2022/05/26 10:52:02;;;;;;;5.82;1.35;;;;;;;18.67;86.02;102108.25;5100243;28;20352;-72
2022/05/26 10:54:39;;;;;;;9.40;2.00;;;;;;;18.41;86.68;102103.72;5092764;28;20028;-73
2022/05/26 10:57:25;;;;;;;9.18;1.77;;;;;;;18.49;88.87;102104.63;5090901;28;20028;-73
2022/05/26 11:00:04;;;;;;;12.73;2.20;;;;;;;18.15;88.99;102100.91;5088020;28;20490;-71
2022/05/26 11:02:50;;;;;;;12.85;2.20;;;;;;;17.96;90.90;102091.91;5088682;28;20073;-72
2022/05/26 11:05:24;;;;;;;7.15;1.92;;;;;;;17.74;91.66;102094.41;5086745;28;20043;-74
2022/05/26 11:07:57;;;;;;;7.00;1.75;;;;;;;18.00;89.06;102083.97;5084974;28;20043;-74
2022/05/26 11:10:31;;;;;;;10.23;1.80;;;;;;;18.20;88.07;102078.75;5086528;28;20048;-74
2022/05/26 11:13:17;;;;;;;13.18;2.13;;;;;;;17.98;89.20;102074.19;5091796;28;20059;-69
2022/05/26 11:18:38;;;;;;;6.43;1.45;;;;;;;18.58;87.83;102073.56;5095337;28;20422;-72
2022/05/26 11:21:04;;;;;;;7.85;2.20;;;;;;;18.94;86.38;102078.13;5089533;28;20028;-68
2022/05/26 11:23:37;;;;;;;11.65;1.80;;;;;;;18.82;79.85;102078.94;5100682;28;20081;-68
2022/05/26 11:26:08;;;;;;;3.70;1.40;;;;;;;18.50;82.30;102070.84;5099777;28;20028;-67
2022/05/26 11:28:51;;;;;;;10.40;1.70;;;;;;;18.45;84.72;102078.84;5087504;28;20035;-68
2022/05/26 11:37:27;;;;;;;6.70;1.52;;;;;;;18.41;84.68;102087.72;5073500;28;20033;-69
2022/05/26 11:39:56;;;;;;;7.65;1.50;;;;;;;18.17;84.81;102097.38;5100701;28;20031;-67
2022/05/26 11:42:29;;;;;;;5.75;1.58;;;;;;;18.12;85.29;102101.81;5103237;28;20012;-68
2022/05/26 11:45:17;;;;;;;6.40;1.70;;;;;;;18.37;85.25;102112.59;5093281;28;20113;-69
2022/05/26 11:48:03;;;;;;;6.72;1.45;;;;;;;18.64;86.84;102097.59;5098861;28;20044;-69
2022/05/26 11:50:47;;;;;;;6.43;1.60;;;;;;;18.91;85.77;102103.88;5093419;28;20115;-70
2022/05/26 11:53:12;;;;;;;;;;;;;;;18.99;83.55;102108.38;5093768;28;20093;-68
2022/05/26 11:55:53;;;;;;;6.35;1.38;;;;;;;18.77;80.85;102101.16;5094726;28;20024;-69
2022/05/26 11:58:29;;;;;;;6.10;1.63;;;;;;;18.90;81.70;102104.78;5094551;28;20055;-72
2022/05/26 12:01:14;;;;;;;6.22;1.45;;;;;;;19.06;81.31;102098.59;5094108;28;20031;-72
2022/05/26 12:03:54;;;;;;;9.13;1.20;;;;;;;18.79;80.66;102102.94;5091730;28;20035;-72
2022/05/26 12:06:53;;;;;;;8.65;1.48;;;;;;;18.95;81.52;102111.91;5093875;28;20036;-72
2022/05/26 12:09:20;;;;;;;8.60;1.10;;;;;;;18.98;78.98;102105.69;5075987;28;20035;-72